createdAt,value
2022-12-18T00:01:41.456Z,101966.70
2022-12-18T00:04:19.522Z,101972.10
2022-12-18T00:06:57.351Z,101974.13
2022-12-18T00:09:39.457Z,101971.95
2022-12-18T00:14:44.411Z,101973.23
2022-12-18T00:17:15.716Z,101972.63
2022-12-18T00:19:55.713Z,101969.84
2022-12-18T00:22:25.267Z,101968.77
2022-12-18T00:24:55.552Z,101972.06
2022-12-18T00:27:25.726Z,101978.35
2022-12-18T00:29:53.611Z,101982.23
2022-12-18T00:32:22.220Z,101989.38
2022-12-18T00:34:50.274Z,101993.36
2022-12-18T00:37:20.197Z,101992.46
2022-12-18T00:39:52.612Z,101994.27
2022-12-18T00:42:40.136Z,101996.66
2022-12-18T00:45:12.716Z,101998.59
2022-12-18T00:47:42.505Z,102004.10
2022-12-18T00:50:11.811Z,102010.00
2022-12-18T00:52:40.156Z,102012.83
2022-12-18T00:55:09.361Z,102013.11
2022-12-18T00:57:37.169Z,102014.57
2022-12-18T01:00:08.797Z,102023.06
2022-12-18T01:02:37.304Z,102024.23
2022-12-18T01:05:18.534Z,102030.61
2022-12-18T01:07:46.511Z,102036.52
2022-12-18T01:10:14.535Z,102035.43
2022-12-18T01:12:44.021Z,102039.09
2022-12-18T01:15:16.875Z,102046.20
2022-12-18T01:17:44.585Z,102052.69
2022-12-18T01:20:14.131Z,102060.32
2022-12-18T01:22:42.840Z,102060.65
2022-12-18T01:25:15.421Z,102063.02
2022-12-18T01:27:45.863Z,102065.41
2022-12-18T01:30:17.230Z,102062.02
2022-12-18T01:32:44.976Z,102068.13
2022-12-18T01:35:14.294Z,102071.15
2022-12-18T01:37:43.584Z,102075.57
2022-12-18T01:40:15.381Z,102068.85
2022-12-18T01:42:43.794Z,102063.37
2022-12-18T01:45:28.667Z,102065.47
2022-12-18T01:47:58.975Z,102071.02
2022-12-18T01:50:43.281Z,102068.08
2022-12-18T01:53:15.018Z,102065.09
2022-12-18T01:55:49.409Z,102070.09
2022-12-18T01:58:18.618Z,102073.34
2022-12-18T02:00:46.716Z,102073.77
2022-12-18T02:03:15.980Z,102075.17
2022-12-18T02:05:49.800Z,102074.44
2022-12-18T02:08:22.537Z,102074.00
2022-12-18T02:11:04.145Z,102076.93
2022-12-18T02:13:43.239Z,102084.98
2022-12-18T02:16:26.214Z,102082.39
2022-12-18T02:18:59.917Z,102082.08
2022-12-18T02:21:37.455Z,102079.77
2022-12-18T02:24:19.392Z,102081.70
2022-12-18T02:26:57.613Z,102093.41
2022-12-18T02:29:31.503Z,102096.34
2022-12-18T02:32:05.804Z,102092.75
2022-12-18T02:34:37.690Z,102093.36
2022-12-18T02:37:09.808Z,102096.21
2022-12-18T02:39:42.709Z,102101.67
2022-12-18T02:42:14.857Z,102105.55
2022-12-18T02:44:48.562Z,102108.53
2022-12-18T02:47:27.282Z,102110.77
2022-12-18T02:50:05.600Z,102115.48
2022-12-18T02:52:40.532Z,102106.48
2022-12-18T02:55:19.472Z,102112.86
2022-12-18T02:57:55.853Z,102110.71
2022-12-18T03:00:34.053Z,102106.98
2022-12-18T03:03:10.744Z,102104.08
2022-12-18T03:05:46.741Z,102105.10
2022-12-18T03:08:21.104Z,102106.20
2022-12-18T03:10:56.421Z,102109.94
2022-12-18T03:13:36.896Z,102113.02
2022-12-18T03:16:10.122Z,102113.60
2022-12-18T03:18:44.198Z,102115.73
2022-12-18T03:21:15.185Z,102112.75
2022-12-18T03:23:49.395Z,102115.17
2022-12-18T03:26:28.245Z,102117.70
2022-12-18T03:29:12.310Z,102120.10
2022-12-18T03:31:43.732Z,102118.60
2022-12-18T03:34:18.448Z,102117.27
2022-12-18T03:36:49.691Z,102120.08
2022-12-18T03:39:17.815Z,102123.48
2022-12-18T03:41:57.268Z,102124.11
2022-12-18T03:44:43.325Z,102125.16
2022-12-18T03:47:20.150Z,102127.44
2022-12-18T03:49:59.213Z,102132.47
2022-12-18T03:52:57.431Z,102130.82
2022-12-18T03:55:29.558Z,102141.36
2022-12-18T03:58:07.206Z,102142.68
2022-12-18T04:00:48.851Z,102148.17
2022-12-18T04:03:22.660Z,102154.48
2022-12-18T04:06:03.908Z,102164.55
2022-12-18T04:08:43.712Z,102170.55
2022-12-18T04:11:15.696Z,102165.57
2022-12-18T04:13:45.089Z,102163.87
2022-12-18T04:16:19.458Z,102160.73
2022-12-18T04:18:47.991Z,102158.56
2022-12-18T04:21:15.936Z,102168.39
2022-12-18T04:23:43.815Z,102169.43
2022-12-18T04:26:12.569Z,102168.48
2022-12-18T04:28:54.465Z,102171.86
2022-12-18T04:31:26.341Z,102175.29
2022-12-18T04:33:54.112Z,102171.88
2022-12-18T04:36:23.925Z,102173.39
2022-12-18T04:38:51.531Z,102170.61
2022-12-18T04:41:22.145Z,102174.23
2022-12-18T04:43:51.389Z,102176.87
2022-12-18T04:46:20.832Z,102178.89
2022-12-18T04:48:51.363Z,102187.85
2022-12-18T04:51:24.644Z,102186.10
2022-12-18T04:53:58.258Z,102191.65
2022-12-18T04:56:26.286Z,102194.76
2022-12-18T04:58:54.300Z,102198.70
2022-12-18T05:01:22.521Z,102198.91
2022-12-18T05:03:52.970Z,102202.70
2022-12-18T05:06:21.376Z,102209.48
2022-12-18T05:09:01.408Z,102212.23
2022-12-18T05:11:31.123Z,102211.00
2022-12-18T05:13:58.770Z,102208.91
2022-12-18T05:16:31.775Z,102208.99
2022-12-18T05:19:24.740Z,102208.48
2022-12-18T05:21:53.204Z,102217.98
2022-12-18T05:24:22.712Z,102225.40
2022-12-18T05:26:53.138Z,102228.48
2022-12-18T05:29:21.369Z,102229.19
2022-12-18T05:31:49.985Z,102226.02
2022-12-18T05:34:22.588Z,102230.27
2022-12-18T05:36:52.607Z,102235.02
2022-12-18T05:39:40.739Z,102243.09
2022-12-18T05:42:09.022Z,102246.22
2022-12-18T05:44:36.677Z,102247.39
2022-12-18T05:47:04.708Z,102248.70
2022-12-18T05:49:32.772Z,102246.58
2022-12-18T05:52:01.249Z,102250.70
2022-12-18T05:54:30.657Z,102248.88
2022-12-18T05:57:03.543Z,102256.67
2022-12-18T05:59:32.550Z,102262.71
2022-12-18T06:02:00.501Z,102261.77
2022-12-18T06:04:29.663Z,102260.90
2022-12-18T06:06:59.140Z,102261.67
2022-12-18T06:09:32.753Z,102262.04
2022-12-18T06:12:09.334Z,102265.63
2022-12-18T06:14:37.651Z,102268.48
2022-12-18T06:17:05.271Z,102273.14
2022-12-18T06:19:32.849Z,102280.68
2022-12-18T06:22:00.471Z,102282.16
2022-12-18T06:24:33.596Z,102280.14
2022-12-18T06:27:03.272Z,102282.52
2022-12-18T06:29:34.403Z,102287.89
2022-12-18T06:32:02.946Z,102288.16
2022-12-18T06:34:30.777Z,102297.14
2022-12-18T06:37:00.408Z,102300.95
2022-12-18T06:39:37.013Z,102308.63
2022-12-18T06:42:06.175Z,102314.48
2022-12-18T06:44:34.628Z,102308.77
2022-12-18T06:47:19.859Z,102310.58
2022-12-18T06:49:49.366Z,102314.86
2022-12-18T06:52:39.469Z,102316.55
2022-12-18T06:55:14.118Z,102317.56
2022-12-18T06:57:46.143Z,102319.45
2022-12-18T07:00:27.013Z,102321.40
2022-12-18T07:02:56.804Z,102326.06
2022-12-18T07:05:37.118Z,102324.64
2022-12-18T07:08:05.275Z,102326.28
2022-12-18T07:10:33.358Z,102332.72
2022-12-18T07:13:01.170Z,102337.66
2022-12-18T07:15:31.015Z,102338.52
2022-12-18T07:18:01.064Z,102343.60
2022-12-18T07:20:34.545Z,102347.38
2022-12-18T07:23:05.418Z,102348.48
2022-12-18T07:25:35.333Z,102353.16
2022-12-18T07:28:02.979Z,102354.10
2022-12-18T07:30:31.283Z,102352.48
2022-12-18T07:32:59.137Z,102356.45
2022-12-18T07:35:26.722Z,102361.26
2022-12-18T07:37:54.711Z,102371.51
2022-12-18T07:40:22.354Z,102373.50
2022-12-18T07:42:50.171Z,102371.77
2022-12-18T07:45:20.427Z,102378.58
2022-12-18T07:47:48.145Z,102375.58
2022-12-18T07:50:16.866Z,102378.27
2022-12-18T07:52:44.731Z,102377.02
2022-12-18T07:55:13.021Z,102375.44
2022-12-18T07:57:50.796Z,102376.05
2022-12-18T08:00:20.143Z,102376.91
2022-12-18T08:02:49.598Z,102382.05
2022-12-18T08:05:17.760Z,102387.99
2022-12-18T08:07:45.466Z,102386.64
2022-12-18T08:10:13.199Z,102387.45
2022-12-18T08:12:40.913Z,102389.81
2022-12-18T08:15:09.923Z,102399.60
2022-12-18T08:17:41.566Z,102399.10
2022-12-18T08:20:11.582Z,102398.63
2022-12-18T08:22:40.628Z,102407.42
2022-12-18T08:25:09.370Z,102409.54
2022-12-18T08:27:38.865Z,102407.40
2022-12-18T08:30:09.432Z,102406.67
2022-12-18T08:32:37.016Z,102410.23
2022-12-18T08:35:06.712Z,102414.88
2022-12-18T08:37:34.251Z,102422.86
2022-12-18T08:40:01.830Z,102423.30
2022-12-18T08:42:47.768Z,102423.84
2022-12-18T08:45:17.142Z,102419.42
2022-12-18T08:47:45.090Z,102418.15
2022-12-18T08:50:15.099Z,102422.40
2022-12-18T08:52:42.931Z,102430.26
2022-12-18T08:55:13.636Z,102432.66
2022-12-18T08:57:41.334Z,102432.64
2022-12-18T09:00:13.433Z,102434.91
2022-12-18T09:02:42.147Z,102438.02
2022-12-18T09:05:10.704Z,102433.67
2022-12-18T09:07:40.775Z,102428.77
2022-12-18T09:10:09.422Z,102423.05
2022-12-18T09:12:37.150Z,102416.93
2022-12-18T09:15:06.989Z,102408.84
2022-12-18T09:17:35.460Z,102399.70
2022-12-18T09:20:03.156Z,102395.99
2022-12-18T09:22:31.666Z,102397.08
2022-12-18T09:25:00.012Z,102394.39
2022-12-18T09:27:27.854Z,102390.27
2022-12-18T09:29:56.930Z,102381.34
2022-12-18T09:32:24.552Z,102383.29
2022-12-18T09:34:52.233Z,102377.55
2022-12-18T09:37:20.885Z,102375.09
2022-12-18T09:39:49.038Z,102369.96
2022-12-18T09:42:29.354Z,102362.69
2022-12-18T09:44:57.270Z,102367.33
2022-12-18T09:47:30.350Z,102363.88
2022-12-18T09:50:06.795Z,102364.14
2022-12-18T09:52:39.518Z,102365.86
2022-12-18T09:55:18.951Z,102365.78
2022-12-18T09:57:53.042Z,102368.44
2022-12-18T10:00:23.606Z,102365.02
2022-12-18T10:02:57.900Z,102361.50
2022-12-18T10:05:42.278Z,102364.50
2022-12-18T10:08:19.867Z,102371.60
2022-12-18T10:10:52.515Z,102374.29
2022-12-18T10:13:29.489Z,102373.08
2022-12-18T10:16:10.658Z,102372.83
2022-12-18T10:18:58.462Z,102381.01
2022-12-18T10:21:33.204Z,102388.58
2022-12-18T10:24:14.170Z,102392.50
2022-12-18T10:26:42.516Z,102389.49
2022-12-18T10:29:15.056Z,102387.73
2022-12-18T10:31:45.659Z,102387.04
2022-12-18T10:34:13.771Z,102387.59
2022-12-18T10:36:44.242Z,102387.68
2022-12-18T10:39:19.966Z,102381.36
2022-12-18T10:41:50.716Z,102383.83
2022-12-18T10:44:21.166Z,102380.58
2022-12-18T10:46:51.109Z,102376.73
2022-12-18T10:49:33.261Z,102371.69
2022-12-18T10:52:22.556Z,102373.52
2022-12-18T10:54:52.999Z,102376.66
2022-12-18T10:57:35.498Z,102382.13
2022-12-18T11:00:24.563Z,102377.93
2022-12-18T11:02:52.866Z,102384.95
2022-12-18T11:05:30.462Z,102381.39
2022-12-18T11:08:00.245Z,102388.83
2022-12-18T11:10:32.464Z,102393.70
2022-12-18T11:13:16.951Z,102392.77
2022-12-18T11:15:45.397Z,102397.22
2022-12-18T11:18:23.211Z,102406.94
2022-12-18T11:20:58.825Z,102412.34
2022-12-18T11:23:27.887Z,102419.49
2022-12-18T11:25:58.575Z,102421.09
2022-12-18T11:28:36.696Z,102424.43
2022-12-18T11:31:21.549Z,102422.39
2022-12-18T11:34:26.895Z,102418.71
2022-12-18T11:36:46.730Z,102411.34
2022-12-18T11:39:20.444Z,102409.83
2022-12-18T11:42:11.873Z,102399.12
2022-12-18T11:44:49.000Z,102389.14
2022-12-18T11:47:20.258Z,102384.02
2022-12-18T11:49:52.494Z,102377.64
2022-12-18T11:52:24.490Z,102383.05
2022-12-18T11:54:53.896Z,102376.95
2022-12-18T11:57:35.250Z,102372.59
2022-12-18T12:00:12.576Z,102373.50
2022-12-18T12:03:21.631Z,102374.55
2022-12-18T12:06:03.264Z,102373.98
2022-12-18T12:08:42.630Z,102372.91
2022-12-18T12:11:21.124Z,102377.48
2022-12-18T12:14:00.529Z,102369.39
2022-12-18T12:16:37.087Z,102371.51
2022-12-18T12:19:22.944Z,102372.46
2022-12-18T12:21:58.973Z,102367.84
2022-12-18T12:24:39.980Z,102368.66
2022-12-18T12:27:18.052Z,102369.20
2022-12-18T12:29:56.640Z,102368.40
2022-12-18T12:32:43.846Z,102370.88
2022-12-18T12:35:25.938Z,102364.79
2022-12-18T12:38:05.026Z,102359.91
2022-12-18T12:40:58.529Z,102361.27
2022-12-18T12:43:35.699Z,102361.25
2022-12-18T12:46:11.787Z,102362.61
2022-12-18T12:48:47.201Z,102358.13
2022-12-18T12:51:20.537Z,102359.78
2022-12-18T12:53:49.164Z,102357.05
2022-12-18T12:56:19.127Z,102367.65
2022-12-18T12:59:00.323Z,102368.56
2022-12-18T13:01:37.870Z,102367.52
2022-12-18T13:04:21.502Z,102377.27
2022-12-18T13:06:57.479Z,102376.86
2022-12-18T13:09:25.199Z,102376.45
2022-12-18T13:12:11.150Z,102370.55
2022-12-18T13:14:41.687Z,102369.22
2022-12-18T13:17:32.147Z,102367.57
2022-12-18T13:20:13.794Z,102364.80
2022-12-18T13:22:46.259Z,102372.02
2022-12-18T13:25:37.641Z,102369.23
2022-12-18T13:28:13.756Z,102360.85
2022-12-18T13:30:57.446Z,102359.00
2022-12-18T13:36:37.371Z,102374.70
2022-12-18T13:39:28.930Z,102378.14
2022-12-18T13:42:58.370Z,102383.24
2022-12-18T13:45:48.849Z,102381.98
2022-12-18T13:48:24.246Z,102391.11
2022-12-18T13:50:58.058Z,102398.10
2022-12-18T13:53:31.848Z,102400.57
2022-12-18T13:55:59.957Z,102403.36
2022-12-18T13:58:28.437Z,102403.00
2022-12-18T14:00:57.048Z,102402.58
2022-12-18T14:03:27.005Z,102402.18
2022-12-18T14:05:59.282Z,102401.57
2022-12-18T14:08:32.936Z,102403.92
2022-12-18T14:11:03.066Z,102408.66
2022-12-18T14:13:34.875Z,102415.48
2022-12-18T14:16:04.732Z,102421.34
2022-12-18T14:18:43.987Z,102424.21
2022-12-18T14:21:25.078Z,102423.15
2022-12-18T14:24:13.915Z,102426.45
2022-12-18T14:26:42.504Z,102432.71
2022-12-18T14:29:27.683Z,102434.84
2022-12-18T14:32:22.518Z,102441.10
2022-12-18T14:34:52.502Z,102446.16
2022-12-18T14:37:24.868Z,102447.99
2022-12-18T14:40:05.767Z,102445.19
2022-12-18T14:42:37.223Z,102440.70
2022-12-18T14:45:41.595Z,102432.89
2022-12-18T14:48:33.840Z,102436.47
2022-12-18T14:51:07.528Z,102436.03
2022-12-18T14:53:42.205Z,102435.38
2022-12-18T14:56:21.076Z,102438.76
2022-12-18T14:58:54.302Z,102442.63
2022-12-18T15:01:27.968Z,102447.16
2022-12-18T15:04:00.236Z,102442.81
2022-12-18T15:06:35.306Z,102437.48
2022-12-18T15:09:05.386Z,102433.95
2022-12-18T15:11:44.632Z,102432.21
2022-12-18T15:14:38.054Z,102429.97
2022-12-18T15:17:18.145Z,102428.06
2022-12-18T15:19:47.669Z,102431.95
2022-12-18T15:22:22.293Z,102434.55
2022-12-18T15:24:51.080Z,102439.17
2022-12-18T15:27:27.751Z,102435.11
2022-12-18T15:30:18.850Z,102435.98
2022-12-18T15:32:47.690Z,102439.09
2022-12-18T15:35:19.365Z,102443.48
2022-12-18T15:37:52.753Z,102440.61
2022-12-18T15:40:27.637Z,102437.77
2022-12-18T15:43:16.721Z,102432.14
2022-12-18T15:45:45.488Z,102422.35
2022-12-18T15:48:38.349Z,102411.43
2022-12-18T15:54:13.080Z,102413.41
2022-12-18T15:57:03.493Z,102407.09
2022-12-18T15:59:34.932Z,102399.92
2022-12-18T16:02:25.177Z,102396.64
2022-12-18T16:05:17.550Z,102400.47
2022-12-18T16:07:51.031Z,102399.09
2022-12-18T16:10:51.805Z,102393.96
2022-12-18T16:13:26.545Z,102398.64
2022-12-18T16:16:15.521Z,102397.52
2022-12-18T16:19:06.433Z,102398.20
2022-12-18T16:21:59.514Z,102397.19
2022-12-18T16:24:45.040Z,102396.91
2022-12-18T16:27:38.954Z,102390.17
2022-12-18T16:30:36.096Z,102383.71
2022-12-18T16:33:22.370Z,102381.89
2022-12-18T16:36:22.606Z,102383.79
2022-12-18T16:39:14.127Z,102380.37
2022-12-18T16:42:11.261Z,102377.52
2022-12-18T16:44:46.224Z,102376.63
2022-12-18T16:47:48.282Z,102376.46
2022-12-18T16:50:23.394Z,102374.92
2022-12-18T16:53:20.618Z,102374.55
2022-12-18T16:56:00.551Z,102376.77
2022-12-18T16:58:52.867Z,102385.18
2022-12-18T17:01:41.910Z,102377.83
2022-12-18T17:04:31.101Z,102375.30
2022-12-18T17:07:23.573Z,102380.63
2022-12-18T17:10:37.184Z,102389.88
2022-12-18T17:13:05.823Z,102400.25
2022-12-18T17:16:03.348Z,102398.27
2022-12-18T17:18:59.517Z,102395.82
2022-12-18T17:22:03.007Z,102403.13
2022-12-18T17:24:58.978Z,102402.89
2022-12-18T17:27:53.940Z,102395.63
2022-12-18T17:30:48.375Z,102397.44
2022-12-18T17:33:37.861Z,102398.35
2022-12-18T17:36:35.533Z,102405.63
2022-12-18T17:39:27.109Z,102403.59
2022-12-18T17:42:17.235Z,102405.73
2022-12-18T17:45:16.441Z,102412.08
2022-12-18T17:47:49.174Z,102413.06
2022-12-18T17:51:13.237Z,102409.91
2022-12-18T17:54:06.289Z,102411.77
2022-12-18T17:56:57.476Z,102404.23
2022-12-18T17:59:29.358Z,102401.34
2022-12-18T18:02:26.532Z,102402.45
2022-12-18T18:05:16.331Z,102406.74
2022-12-18T18:08:09.122Z,102406.11
2022-12-18T18:11:21.623Z,102411.05
2022-12-18T18:14:01.584Z,102411.19
2022-12-18T18:16:56.293Z,102406.26
2022-12-18T18:19:27.761Z,102406.48
2022-12-18T18:22:13.115Z,102399.76
2022-12-18T18:24:49.961Z,102394.88
2022-12-18T18:27:40.479Z,102388.23
2022-12-18T18:30:34.045Z,102381.46
2022-12-18T18:33:32.887Z,102377.67
2022-12-18T18:36:28.706Z,102372.03
2022-12-18T18:39:09.084Z,102368.50
2022-12-18T18:42:03.416Z,102372.20
2022-12-18T18:44:55.497Z,102380.40
2022-12-18T18:47:30.903Z,102379.83
2022-12-18T18:50:22.528Z,102384.45
2022-12-18T18:53:14.925Z,102386.89
2022-12-18T18:59:19.471Z,102392.59
2022-12-18T19:02:31.546Z,102393.61
2022-12-18T19:05:28.962Z,102392.67
2022-12-18T19:08:24.151Z,102383.09
2022-12-18T19:10:58.794Z,102378.92
2022-12-18T19:13:50.237Z,102385.25
2022-12-18T19:16:44.634Z,102384.05
2022-12-18T19:19:26.861Z,102386.92
2022-12-18T19:22:21.759Z,102393.35
2022-12-18T19:25:06.032Z,102387.98
2022-12-18T19:28:05.609Z,102386.45
2022-12-18T19:31:02.142Z,102389.03
2022-12-18T19:33:50.436Z,102379.77
2022-12-18T19:36:59.723Z,102373.27
2022-12-18T19:39:52.858Z,102371.09
2022-12-18T19:42:45.333Z,102366.80
2022-12-18T19:45:46.520Z,102366.48
2022-12-18T19:48:30.087Z,102358.65
2022-12-18T19:51:35.742Z,102358.95
2022-12-18T19:54:06.869Z,102364.02
2022-12-18T19:57:10.251Z,102364.04
2022-12-18T20:00:10.852Z,102366.09
2022-12-18T20:03:27.376Z,102359.27
2022-12-18T20:06:26.394Z,102357.78
2022-12-18T20:09:23.314Z,102357.92
2022-12-18T20:12:16.513Z,102355.41
2022-12-18T20:15:18.442Z,102358.82
2022-12-18T20:18:12.688Z,102359.20
2022-12-18T20:21:15.833Z,102359.14
2022-12-18T20:24:10.567Z,102362.26
2022-12-18T20:27:14.611Z,102363.71
2022-12-18T20:30:27.670Z,102360.94
2022-12-18T20:33:47.703Z,102364.14
2022-12-18T20:36:58.880Z,102360.08
2022-12-18T20:40:03.107Z,102361.12
2022-12-18T20:42:58.425Z,102359.00
2022-12-18T20:45:52.454Z,102351.70
2022-12-18T20:48:48.989Z,102351.39
2022-12-18T20:51:25.379Z,102349.72
2022-12-18T20:54:11.654Z,102351.48
2022-12-18T20:56:46.776Z,102360.31
2022-12-18T20:59:21.293Z,102357.77
2022-12-18T21:02:01.076Z,102354.84
2022-12-18T21:05:08.127Z,102355.55
2022-12-18T21:08:01.200Z,102359.36
2022-12-18T21:10:54.536Z,102355.91
2022-12-18T21:13:37.435Z,102359.09
2022-12-18T21:16:30.513Z,102361.61
2022-12-18T21:19:22.837Z,102358.63
2022-12-18T21:22:13.081Z,102355.10
2022-12-18T21:25:14.606Z,102352.08
2022-12-18T21:28:12.693Z,102349.54
2022-12-18T21:31:11.168Z,102343.45
2022-12-18T21:33:49.411Z,102337.77
2022-12-18T21:36:20.361Z,102335.16
2022-12-18T21:39:13.224Z,102332.77
2022-12-18T21:42:27.451Z,102326.01
2022-12-18T21:44:59.866Z,102322.21
2022-12-18T21:47:54.771Z,102324.56
2022-12-18T21:50:46.225Z,102324.77
2022-12-18T21:53:34.660Z,102310.73
2022-12-18T21:56:25.007Z,102295.16
2022-12-18T21:59:37.079Z,102286.73
2022-12-18T22:02:16.067Z,102283.60
2022-12-18T22:05:18.036Z,102274.58
2022-12-18T22:08:10.479Z,102279.45
2022-12-18T22:11:01.320Z,102277.62
2022-12-18T22:13:57.123Z,102276.78
2022-12-18T22:16:42.493Z,102280.70
2022-12-18T22:19:41.055Z,102280.61
2022-12-18T22:22:38.377Z,102265.65
2022-12-18T22:25:46.716Z,102261.15
2022-12-18T22:29:02.744Z,102269.05
2022-12-18T22:31:52.634Z,102271.44
2022-12-18T22:34:42.738Z,102264.86
2022-12-18T22:37:35.672Z,102259.98
2022-12-18T22:40:26.552Z,102262.85
2022-12-18T22:43:04.028Z,102257.25
2022-12-18T22:45:54.336Z,102248.80
2022-12-18T22:48:45.729Z,102237.11
2022-12-18T22:51:36.847Z,102240.83
2022-12-18T22:54:25.974Z,102235.89
2022-12-18T22:57:14.862Z,102234.38
2022-12-18T23:00:07.332Z,102235.15
2022-12-18T23:03:02.242Z,102233.84
2022-12-18T23:05:35.226Z,102233.41
2022-12-18T23:08:24.861Z,102223.70
2022-12-18T23:11:14.432Z,102229.09
2022-12-18T23:14:06.411Z,102228.75
2022-12-18T23:17:06.678Z,102222.05
2022-12-18T23:19:36.179Z,102212.52
2022-12-18T23:22:27.799Z,102210.38
2022-12-18T23:24:55.789Z,102213.05
2022-12-18T23:27:44.162Z,102214.45
2022-12-18T23:30:36.138Z,102213.33
2022-12-18T23:33:31.341Z,102214.79
2022-12-18T23:36:23.429Z,102202.99
2022-12-18T23:39:29.379Z,102205.39
2022-12-18T23:42:25.347Z,102212.01
2022-12-18T23:45:18.075Z,102206.24
2022-12-18T23:48:11.743Z,102196.14
2022-12-18T23:51:06.507Z,102198.88
2022-12-18T23:53:56.919Z,102193.93
2022-12-18T23:56:50.360Z,102185.53
2022-12-18T23:59:38.728Z,102190.08
